sensor_id;sensor_type;location;lat;lon;timestamp;P1;durP1;ratioP1;P2;durP2;ratioP2
4521;SDS011;2273;48.464;11.926;2023-06-24T00:00:02;10.90;;;4.30;;
4521;SDS011;2273;48.464;11.926;2023-06-24T00:02:32;7.27;;;4.30;;
4521;SDS011;2273;48.464;11.926;2023-06-24T00:05:01;7.17;;;5.27;;
4521;SDS011;2273;48.464;11.926;2023-06-24T00:07:28;5.80;;;4.30;;
4521;SDS011;2273;48.464;11.926;2023-06-24T00:09:54;7.80;;;4.30;;
4521;SDS011;2273;48.464;11.926;2023-06-24T00:12:19;4.80;;;3.80;;
4521;SDS011;2273;48.464;11.926;2023-06-24T00:14:46;6.40;;;4.90;;
4521;SDS011;2273;48.464;11.926;2023-06-24T00:17:11;9.93;;;4.67;;
4521;SDS011;2273;48.464;11.926;2023-06-24T00:19:37;7.33;;;4.70;;
4521;SDS011;2273;48.464;11.926;2023-06-24T00:22:02;8.10;;;5.10;;
4521;SDS011;2273;48.464;11.926;2023-06-24T00:24:28;8.07;;;4.90;;
4521;SDS011;2273;48.464;11.926;2023-06-24T00:26:57;7.43;;;4.90;;
4521;SDS011;2273;48.464;11.926;2023-06-24T00:29:23;6.50;;;4.20;;
4521;SDS011;2273;48.464;11.926;2023-06-24T00:31:48;6.07;;;4.97;;
4521;SDS011;2273;48.464;11.926;2023-06-24T00:34:14;5.80;;;4.43;;
4521;SDS011;2273;48.464;11.926;2023-06-24T00:36:39;6.70;;;4.93;;
4521;SDS011;2273;48.464;11.926;2023-06-24T00:39:05;8.13;;;4.67;;
4521;SDS011;2273;48.464;11.926;2023-06-24T00:41:31;7.03;;;5.00;;
4521;SDS011;2273;48.464;11.926;2023-06-24T00:43:57;5.97;;;4.30;;
4521;SDS011;2273;48.464;11.926;2023-06-24T00:46:26;7.13;;;5.57;;
4521;SDS011;2273;48.464;11.926;2023-06-24T00:48:54;7.53;;;5.73;;
4521;SDS011;2273;48.464;11.926;2023-06-24T00:51:20;6.53;;;4.80;;
4521;SDS011;2273;48.464;11.926;2023-06-24T00:53:46;5.60;;;4.40;;
4521;SDS011;2273;48.464;11.926;2023-06-24T00:56:13;6.97;;;4.20;;
4521;SDS011;2273;48.464;11.926;2023-06-24T00:58:39;7.97;;;5.10;;
4521;SDS011;2273;48.464;11.926;2023-06-24T01:01:05;6.67;;;5.30;;
4521;SDS011;2273;48.464;11.926;2023-06-24T01:03:33;6.93;;;4.87;;
4521;SDS011;2273;48.464;11.926;2023-06-24T01:05:59;6.20;;;4.90;;
4521;SDS011;2273;48.464;11.926;2023-06-24T01:08:25;6.50;;;4.37;;
4521;SDS011;2273;48.464;11.926;2023-06-24T01:10:51;6.17;;;4.80;;
4521;SDS011;2273;48.464;11.926;2023-06-24T01:13:17;7.73;;;4.80;;
4521;SDS011;2273;48.464;11.926;2023-06-24T01:15:42;7.27;;;4.80;;
4521;SDS011;2273;48.464;11.926;2023-06-24T01:18:10;8.07;;;5.30;;
4521;SDS011;2273;48.464;11.926;2023-06-24T01:20:41;7.40;;;4.80;;
4521;SDS011;2273;48.464;11.926;2023-06-24T01:26:14;6.97;;;4.87;;
4521;SDS011;2273;48.464;11.926;2023-06-24T01:29:06;7.00;;;4.67;;
4521;SDS011;2273;48.464;11.926;2023-06-24T01:31:42;7.13;;;4.77;;
4521;SDS011;2273;48.464;11.926;2023-06-24T01:34:42;9.43;;;5.43;;
4521;SDS011;2273;48.464;11.926;2023-06-24T01:37:23;5.50;;;4.70;;
4521;SDS011;2273;48.464;11.926;2023-06-24T01:40:00;10.33;;;4.93;;
4521;SDS011;2273;48.464;11.926;2023-06-24T01:42:34;5.93;;;5.03;;
4521;SDS011;2273;48.464;11.926;2023-06-24T01:45:01;6.73;;;5.37;;
4521;SDS011;2273;48.464;11.926;2023-06-24T01:47:27;7.17;;;5.43;;
4521;SDS011;2273;48.464;11.926;2023-06-24T01:49:55;6.90;;;5.27;;
4521;SDS011;2273;48.464;11.926;2023-06-24T01:52:23;7.27;;;5.50;;
4521;SDS011;2273;48.464;11.926;2023-06-24T01:54:48;7.93;;;5.33;;
4521;SDS011;2273;48.464;11.926;2023-06-24T01:57:14;9.53;;;5.60;;
4521;SDS011;2273;48.464;11.926;2023-06-24T01:59:42;6.60;;;5.27;;
4521;SDS011;2273;48.464;11.926;2023-06-24T02:02:10;10.00;;;5.03;;
4521;SDS011;2273;48.464;11.926;2023-06-24T02:04:37;8.87;;;5.77;;
4521;SDS011;2273;48.464;11.926;2023-06-24T02:07:03;8.30;;;5.97;;
4521;SDS011;2273;48.464;11.926;2023-06-24T02:09:29;13.77;;;5.30;;
4521;SDS011;2273;48.464;11.926;2023-06-24T02:11:57;6.40;;;4.80;;
4521;SDS011;2273;48.464;11.926;2023-06-24T02:14:24;8.30;;;6.07;;
4521;SDS011;2273;48.464;11.926;2023-06-24T02:16:50;9.13;;;5.70;;
4521;SDS011;2273;48.464;11.926;2023-06-24T02:19:21;7.40;;;5.40;;
4521;SDS011;2273;48.464;11.926;2023-06-24T02:21:47;6.63;;;5.03;;
4521;SDS011;2273;48.464;11.926;2023-06-24T02:24:13;10.30;;;6.30;;
4521;SDS011;2273;48.464;11.926;2023-06-24T02:26:39;7.63;;;5.93;;
4521;SDS011;2273;48.464;11.926;2023-06-24T02:29:06;7.77;;;5.97;;
4521;SDS011;2273;48.464;11.926;2023-06-24T02:31:33;8.50;;;5.63;;
4521;SDS011;2273;48.464;11.926;2023-06-24T02:33:59;10.83;;;6.53;;
4521;SDS011;2273;48.464;11.926;2023-06-24T02:36:24;9.23;;;6.60;;
4521;SDS011;2273;48.464;11.926;2023-06-24T02:38:50;9.70;;;6.40;;
4521;SDS011;2273;48.464;11.926;2023-06-24T02:41:16;8.63;;;6.93;;
4521;SDS011;2273;48.464;11.926;2023-06-24T02:43:41;10.60;;;7.47;;
4521;SDS011;2273;48.464;11.926;2023-06-24T02:46:07;11.33;;;7.20;;
4521;SDS011;2273;48.464;11.926;2023-06-24T02:48:32;8.83;;;7.03;;
4521;SDS011;2273;48.464;11.926;2023-06-24T02:51:00;9.60;;;7.17;;
4521;SDS011;2273;48.464;11.926;2023-06-24T02:53:26;11.60;;;6.90;;
4521;SDS011;2273;48.464;11.926;2023-06-24T02:55:55;10.00;;;7.40;;
4521;SDS011;2273;48.464;11.926;2023-06-24T02:58:20;12.23;;;9.13;;
4521;SDS011;2273;48.464;11.926;2023-06-24T03:01:00;10.73;;;8.17;;
4521;SDS011;2273;48.464;11.926;2023-06-24T03:03:32;10.90;;;7.87;;
4521;SDS011;2273;48.464;11.926;2023-06-24T03:05:58;8.90;;;7.10;;
4521;SDS011;2273;48.464;11.926;2023-06-24T03:08:27;9.40;;;7.40;;
4521;SDS011;2273;48.464;11.926;2023-06-24T03:10:55;9.53;;;7.23;;
4521;SDS011;2273;48.464;11.926;2023-06-24T03:13:23;14.10;;;8.47;;
4521;SDS011;2273;48.464;11.926;2023-06-24T03:16:09;12.33;;;8.20;;
4521;SDS011;2273;48.464;11.926;2023-06-24T03:18:42;10.30;;;7.93;;
4521;SDS011;2273;48.464;11.926;2023-06-24T03:21:08;12.47;;;8.13;;
4521;SDS011;2273;48.464;11.926;2023-06-24T03:23:34;9.57;;;7.33;;
4521;SDS011;2273;48.464;11.926;2023-06-24T03:26:00;13.03;;;7.90;;
4521;SDS011;2273;48.464;11.926;2023-06-24T03:28:31;10.70;;;7.53;;
4521;SDS011;2273;48.464;11.926;2023-06-24T03:31:06;10.17;;;7.10;;
4521;SDS011;2273;48.464;11.926;2023-06-24T03:33:32;9.00;;;7.07;;
4521;SDS011;2273;48.464;11.926;2023-06-24T03:35:58;9.63;;;7.57;;
4521;SDS011;2273;48.464;11.926;2023-06-24T03:38:27;9.70;;;7.10;;
4521;SDS011;2273;48.464;11.926;2023-06-24T03:40:54;8.67;;;7.40;;
4521;SDS011;2273;48.464;11.926;2023-06-24T03:43:20;10.27;;;7.20;;
4521;SDS011;2273;48.464;11.926;2023-06-24T03:45:45;8.77;;;7.03;;
4521;SDS011;2273;48.464;11.926;2023-06-24T03:48:11;9.97;;;7.10;;
4521;SDS011;2273;48.464;11.926;2023-06-24T03:50:37;11.00;;;7.13;;
4521;SDS011;2273;48.464;11.926;2023-06-24T03:53:03;8.67;;;6.47;;
4521;SDS011;2273;48.464;11.926;2023-06-24T03:55:29;8.23;;;6.63;;
4521;SDS011;2273;48.464;11.926;2023-06-24T03:57:54;9.20;;;6.77;;
4521;SDS011;2273;48.464;11.926;2023-06-24T04:00:20;11.60;;;7.20;;
4521;SDS011;2273;48.464;11.926;2023-06-24T04:02:46;9.60;;;6.60;;
4521;SDS011;2273;48.464;11.926;2023-06-24T04:05:11;13.17;;;6.90;;
4521;SDS011;2273;48.464;11.926;2023-06-24T04:07:37;8.77;;;6.50;;
4521;SDS011;2273;48.464;11.926;2023-06-24T04:10:03;9.70;;;7.43;;
4521;SDS011;2273;48.464;11.926;2023-06-24T04:12:33;13.70;;;6.13;;
4521;SDS011;2273;48.464;11.926;2023-06-24T04:15:01;8.70;;;6.30;;
4521;SDS011;2273;48.464;11.926;2023-06-24T04:17:28;10.47;;;6.83;;
4521;SDS011;2273;48.464;11.926;2023-06-24T04:19:57;10.60;;;6.47;;
4521;SDS011;2273;48.464;11.926;2023-06-24T04:22:24;8.40;;;6.33;;
4521;SDS011;2273;48.464;11.926;2023-06-24T04:24:49;8.13;;;6.30;;
4521;SDS011;2273;48.464;11.926;2023-06-24T04:27:16;10.73;;;6.43;;
4521;SDS011;2273;48.464;11.926;2023-06-24T04:29:41;8.40;;;5.67;;
4521;SDS011;2273;48.464;11.926;2023-06-24T04:32:08;11.70;;;7.33;;
4521;SDS011;2273;48.464;11.926;2023-06-24T04:34:33;8.60;;;6.23;;
4521;SDS011;2273;48.464;11.926;2023-06-24T04:36:59;7.07;;;5.53;;
4521;SDS011;2273;48.464;11.926;2023-06-24T04:39:24;9.57;;;7.10;;
4521;SDS011;2273;48.464;11.926;2023-06-24T04:41:50;10.83;;;6.73;;
4521;SDS011;2273;48.464;11.926;2023-06-24T04:44:15;9.20;;;6.90;;
4521;SDS011;2273;48.464;11.926;2023-06-24T04:46:41;8.30;;;6.37;;
4521;SDS011;2273;48.464;11.926;2023-06-24T04:49:06;9.07;;;6.50;;
4521;SDS011;2273;48.464;11.926;2023-06-24T04:51:32;7.73;;;6.13;;
4521;SDS011;2273;48.464;11.926;2023-06-24T04:53:57;9.97;;;6.63;;
4521;SDS011;2273;48.464;11.926;2023-06-24T04:56:23;9.80;;;6.03;;
4521;SDS011;2273;48.464;11.926;2023-06-24T04:58:48;12.10;;;5.73;;
4521;SDS011;2273;48.464;11.926;2023-06-24T05:01:14;8.73;;;5.60;;
4521;SDS011;2273;48.464;11.926;2023-06-24T05:03:39;15.20;;;6.30;;
4521;SDS011;2273;48.464;11.926;2023-06-24T05:06:04;9.80;;;6.20;;
4521;SDS011;2273;48.464;11.926;2023-06-24T05:08:30;10.90;;;6.30;;
4521;SDS011;2273;48.464;11.926;2023-06-24T05:10:55;7.60;;;6.50;;
4521;SDS011;2273;48.464;11.926;2023-06-24T05:13:21;14.73;;;6.60;;
4521;SDS011;2273;48.464;11.926;2023-06-24T05:15:46;9.33;;;5.80;;
4521;SDS011;2273;48.464;11.926;2023-06-24T05:18:11;10.73;;;6.60;;
4521;SDS011;2273;48.464;11.926;2023-06-24T05:20:37;8.67;;;5.80;;
4521;SDS011;2273;48.464;11.926;2023-06-24T05:23:02;10.53;;;7.03;;
4521;SDS011;2273;48.464;11.926;2023-06-24T05:25:28;8.80;;;6.53;;
4521;SDS011;2273;48.464;11.926;2023-06-24T05:27:53;9.17;;;6.60;;
4521;SDS011;2273;48.464;11.926;2023-06-24T05:30:19;9.23;;;6.33;;
4521;SDS011;2273;48.464;11.926;2023-06-24T05:32:45;11.30;;;6.97;;
4521;SDS011;2273;48.464;11.926;2023-06-24T05:35:10;9.73;;;6.23;;
4521;SDS011;2273;48.464;11.926;2023-06-24T05:37:36;9.40;;;6.77;;
4521;SDS011;2273;48.464;11.926;2023-06-24T05:40:01;9.13;;;5.90;;
4521;SDS011;2273;48.464;11.926;2023-06-24T05:42:27;8.47;;;6.27;;
4521;SDS011;2273;48.464;11.926;2023-06-24T05:44:53;9.97;;;6.77;;
4521;SDS011;2273;48.464;11.926;2023-06-24T05:47:18;7.93;;;6.00;;
4521;SDS011;2273;48.464;11.926;2023-06-24T05:49:44;8.53;;;6.07;;
4521;SDS011;2273;48.464;11.926;2023-06-24T05:52:11;11.93;;;6.23;;
4521;SDS011;2273;48.464;11.926;2023-06-24T05:54:36;9.13;;;5.80;;
4521;SDS011;2273;48.464;11.926;2023-06-24T05:57:02;7.63;;;5.50;;
4521;SDS011;2273;48.464;11.926;2023-06-24T05:59:31;10.00;;;6.00;;
4521;SDS011;2273;48.464;11.926;2023-06-24T06:01:56;8.10;;;5.83;;
4521;SDS011;2273;48.464;11.926;2023-06-24T06:04:22;8.73;;;5.60;;
4521;SDS011;2273;48.464;11.926;2023-06-24T06:06:47;7.57;;;5.47;;
4521;SDS011;2273;48.464;11.926;2023-06-24T06:09:13;8.17;;;5.90;;
4521;SDS011;2273;48.464;11.926;2023-06-24T06:11:38;8.57;;;5.13;;
4521;SDS011;2273;48.464;11.926;2023-06-24T06:14:03;11.50;;;5.57;;
4521;SDS011;2273;48.464;11.926;2023-06-24T06:16:29;8.97;;;5.70;;
4521;SDS011;2273;48.464;11.926;2023-06-24T06:18:54;10.40;;;5.90;;
4521;SDS011;2273;48.464;11.926;2023-06-24T06:21:20;7.87;;;5.77;;
4521;SDS011;2273;48.464;11.926;2023-06-24T06:23:45;7.13;;;5.00;;
4521;SDS011;2273;48.464;11.926;2023-06-24T06:26:10;7.77;;;5.63;;
4521;SDS011;2273;48.464;11.926;2023-06-24T06:28:36;8.40;;;5.83;;
4521;SDS011;2273;48.464;11.926;2023-06-24T06:31:01;8.43;;;4.87;;
4521;SDS011;2273;48.464;11.926;2023-06-24T06:33:27;13.63;;;5.70;;
4521;SDS011;2273;48.464;11.926;2023-06-24T06:35:52;7.20;;;5.20;;
4521;SDS011;2273;48.464;11.926;2023-06-24T06:38:17;7.83;;;5.10;;
4521;SDS011;2273;48.464;11.926;2023-06-24T06:40:43;6.73;;;5.33;;
4521;SDS011;2273;48.464;11.926;2023-06-24T06:43:08;9.83;;;5.13;;
4521;SDS011;2273;48.464;11.926;2023-06-24T06:45:34;6.63;;;4.87;;
4521;SDS011;2273;48.464;11.926;2023-06-24T06:47:59;8.07;;;5.13;;
4521;SDS011;2273;48.464;11.926;2023-06-24T06:50:25;7.50;;;5.60;;
4521;SDS011;2273;48.464;11.926;2023-06-24T06:52:50;8.30;;;5.87;;
4521;SDS011;2273;48.464;11.926;2023-06-24T06:55:16;8.47;;;5.97;;
4521;SDS011;2273;48.464;11.926;2023-06-24T06:57:41;9.77;;;5.50;;
4521;SDS011;2273;48.464;11.926;2023-06-24T07:00:08;7.20;;;5.40;;
4521;SDS011;2273;48.464;11.926;2023-06-24T07:02:34;7.00;;;5.20;;
4521;SDS011;2273;48.464;11.926;2023-06-24T07:04:59;6.93;;;5.57;;
4521;SDS011;2273;48.464;11.926;2023-06-24T07:07:26;11.60;;;5.60;;
4521;SDS011;2273;48.464;11.926;2023-06-24T07:09:51;7.10;;;5.40;;
4521;SDS011;2273;48.464;11.926;2023-06-24T07:12:16;6.30;;;4.80;;
4521;SDS011;2273;48.464;11.926;2023-06-24T07:14:42;7.50;;;5.40;;
4521;SDS011;2273;48.464;11.926;2023-06-24T07:17:08;7.33;;;5.30;;
4521;SDS011;2273;48.464;11.926;2023-06-24T07:19:33;9.40;;;5.63;;
4521;SDS011;2273;48.464;11.926;2023-06-24T07:21:59;7.17;;;5.37;;
4521;SDS011;2273;48.464;11.926;2023-06-24T07:24:24;14.07;;;6.10;;
4521;SDS011;2273;48.464;11.926;2023-06-24T07:26:49;7.33;;;5.70;;
4521;SDS011;2273;48.464;11.926;2023-06-24T07:29:15;9.30;;;5.87;;
4521;SDS011;2273;48.464;11.926;2023-06-24T07:31:40;8.20;;;5.83;;
4521;SDS011;2273;48.464;11.926;2023-06-24T07:34:06;9.57;;;5.63;;
4521;SDS011;2273;48.464;11.926;2023-06-24T07:36:31;7.03;;;5.23;;
4521;SDS011;2273;48.464;11.926;2023-06-24T07:38:57;9.30;;;5.77;;
4521;SDS011;2273;48.464;11.926;2023-06-24T07:41:22;6.90;;;4.63;;
4521;SDS011;2273;48.464;11.926;2023-06-24T07:43:48;9.10;;;5.30;;
4521;SDS011;2273;48.464;11.926;2023-06-24T07:46:13;7.60;;;5.33;;
4521;SDS011;2273;48.464;11.926;2023-06-24T07:48:40;8.70;;;5.20;;
4521;SDS011;2273;48.464;11.926;2023-06-24T07:51:05;10.73;;;6.17;;
4521;SDS011;2273;48.464;11.926;2023-06-24T07:53:30;6.30;;;4.87;;
4521;SDS011;2273;48.464;11.926;2023-06-24T07:55:58;7.80;;;5.50;;
4521;SDS011;2273;48.464;11.926;2023-06-24T07:58:24;6.50;;;4.90;;
4521;SDS011;2273;48.464;11.926;2023-06-24T08:00:49;9.80;;;5.80;;
4521;SDS011;2273;48.464;11.926;2023-06-24T08:03:15;9.53;;;5.27;;
4521;SDS011;2273;48.464;11.926;2023-06-24T08:05:40;10.30;;;6.13;;
4521;SDS011;2273;48.464;11.926;2023-06-24T08:08:05;7.43;;;5.63;;
4521;SDS011;2273;48.464;11.926;2023-06-24T08:10:31;8.50;;;5.10;;
4521;SDS011;2273;48.464;11.926;2023-06-24T08:12:57;9.03;;;5.40;;
4521;SDS011;2273;48.464;11.926;2023-06-24T08:15:22;10.90;;;5.93;;
4521;SDS011;2273;48.464;11.926;2023-06-24T08:17:51;9.33;;;5.60;;
4521;SDS011;2273;48.464;11.926;2023-06-24T08:20:17;6.30;;;4.67;;
4521;SDS011;2273;48.464;11.926;2023-06-24T08:22:43;9.73;;;5.67;;
4521;SDS011;2273;48.464;11.926;2023-06-24T08:25:08;6.13;;;4.87;;
4521;SDS011;2273;48.464;11.926;2023-06-24T08:27:33;7.17;;;5.40;;
4521;SDS011;2273;48.464;11.926;2023-06-24T08:29:59;8.60;;;5.00;;
4521;SDS011;2273;48.464;11.926;2023-06-24T08:32:24;5.80;;;4.30;;
4521;SDS011;2273;48.464;11.926;2023-06-24T08:34:50;5.60;;;4.20;;
4521;SDS011;2273;48.464;11.926;2023-06-24T08:37:15;8.33;;;4.80;;
4521;SDS011;2273;48.464;11.926;2023-06-24T08:39:41;8.77;;;6.03;;
4521;SDS011;2273;48.464;11.926;2023-06-24T08:42:06;8.07;;;5.30;;
4521;SDS011;2273;48.464;11.926;2023-06-24T08:44:32;7.33;;;4.83;;
4521;SDS011;2273;48.464;11.926;2023-06-24T08:46:57;6.57;;;4.30;;
4521;SDS011;2273;48.464;11.926;2023-06-24T08:51:49;5.60;;;4.60;;
4521;SDS011;2273;48.464;11.926;2023-06-24T08:54:17;6.90;;;4.70;;
4521;SDS011;2273;48.464;11.926;2023-06-24T08:56:45;7.07;;;4.90;;
4521;SDS011;2273;48.464;11.926;2023-06-24T08:59:10;7.30;;;5.33;;
4521;SDS011;2273;48.464;11.926;2023-06-24T09:01:36;9.70;;;5.00;;
4521;SDS011;2273;48.464;11.926;2023-06-24T09:04:01;7.13;;;5.27;;
4521;SDS011;2273;48.464;11.926;2023-06-24T09:06:27;8.60;;;5.70;;
4521;SDS011;2273;48.464;11.926;2023-06-24T09:08:53;8.30;;;4.80;;
4521;SDS011;2273;48.464;11.926;2023-06-24T09:11:26;6.60;;;5.20;;
4521;SDS011;2273;48.464;11.926;2023-06-24T09:13:58;7.80;;;5.30;;
4521;SDS011;2273;48.464;11.926;2023-06-24T09:16:24;8.17;;;5.50;;
4521;SDS011;2273;48.464;11.926;2023-06-24T09:18:50;7.60;;;5.10;;
4521;SDS011;2273;48.464;11.926;2023-06-24T09:21:23;7.53;;;5.50;;
4521;SDS011;2273;48.464;11.926;2023-06-24T09:23:56;6.67;;;5.40;;
4521;SDS011;2273;48.464;11.926;2023-06-24T09:26:23;9.17;;;6.03;;
4521;SDS011;2273;48.464;11.926;2023-06-24T09:28:52;8.43;;;5.47;;
4521;SDS011;2273;48.464;11.926;2023-06-24T09:31:17;6.83;;;5.40;;
4521;SDS011;2273;48.464;11.926;2023-06-24T09:33:43;7.73;;;5.50;;
4521;SDS011;2273;48.464;11.926;2023-06-24T09:36:12;9.93;;;5.70;;
4521;SDS011;2273;48.464;11.926;2023-06-24T09:38:40;8.80;;;5.07;;
4521;SDS011;2273;48.464;11.926;2023-06-24T09:41:07;8.63;;;5.60;;
4521;SDS011;2273;48.464;11.926;2023-06-24T09:43:36;5.80;;;4.53;;
4521;SDS011;2273;48.464;11.926;2023-06-24T09:46:02;7.03;;;4.80;;
4521;SDS011;2273;48.464;11.926;2023-06-24T09:48:28;7.87;;;5.70;;
4521;SDS011;2273;48.464;11.926;2023-06-24T09:51:01;5.60;;;4.60;;
4521;SDS011;2273;48.464;11.926;2023-06-24T09:53:30;7.00;;;4.77;;
4521;SDS011;2273;48.464;11.926;2023-06-24T09:55:59;8.73;;;5.20;;
4521;SDS011;2273;48.464;11.926;2023-06-24T09:58:25;7.23;;;4.63;;
4521;SDS011;2273;48.464;11.926;2023-06-24T10:00:51;6.77;;;4.40;;
4521;SDS011;2273;48.464;11.926;2023-06-24T10:03:17;6.57;;;4.33;;
4521;SDS011;2273;48.464;11.926;2023-06-24T10:05:43;6.27;;;4.63;;
4521;SDS011;2273;48.464;11.926;2023-06-24T10:08:09;4.97;;;4.20;;
4521;SDS011;2273;48.464;11.926;2023-06-24T10:10:35;5.17;;;4.17;;
4521;SDS011;2273;48.464;11.926;2023-06-24T10:13:01;4.17;;;3.67;;
4521;SDS011;2273;48.464;11.926;2023-06-24T10:15:26;5.10;;;3.80;;
4521;SDS011;2273;48.464;11.926;2023-06-24T10:17:52;4.23;;;3.70;;
4521;SDS011;2273;48.464;11.926;2023-06-24T10:20:24;5.00;;;4.00;;
4521;SDS011;2273;48.464;11.926;2023-06-24T10:22:53;5.03;;;4.17;;
4521;SDS011;2273;48.464;11.926;2023-06-24T10:25:18;5.60;;;3.90;;
4521;SDS011;2273;48.464;11.926;2023-06-24T10:27:44;5.30;;;3.80;;
4521;SDS011;2273;48.464;11.926;2023-06-24T10:30:18;7.47;;;4.10;;
4521;SDS011;2273;48.464;11.926;2023-06-24T10:32:44;5.00;;;3.87;;
4521;SDS011;2273;48.464;11.926;2023-06-24T10:35:23;8.03;;;4.30;;
4521;SDS011;2273;48.464;11.926;2023-06-24T10:37:53;5.33;;;3.63;;
4521;SDS011;2273;48.464;11.926;2023-06-24T10:40:34;5.87;;;4.47;;
4521;SDS011;2273;48.464;11.926;2023-06-24T10:43:24;5.40;;;3.80;;
4521;SDS011;2273;48.464;11.926;2023-06-24T10:45:52;7.00;;;3.93;;
4521;SDS011;2273;48.464;11.926;2023-06-24T10:48:18;5.33;;;3.90;;
4521;SDS011;2273;48.464;11.926;2023-06-24T10:50:47;6.53;;;4.80;;
4521;SDS011;2273;48.464;11.926;2023-06-24T10:53:13;4.30;;;3.43;;
4521;SDS011;2273;48.464;11.926;2023-06-24T10:55:38;5.80;;;4.27;;
4521;SDS011;2273;48.464;11.926;2023-06-24T10:58:10;4.97;;;4.20;;
4521;SDS011;2273;48.464;11.926;2023-06-24T11:00:38;5.80;;;4.60;;
4521;SDS011;2273;48.464;11.926;2023-06-24T11:03:13;4.27;;;3.87;;
4521;SDS011;2273;48.464;11.926;2023-06-24T11:05:40;9.33;;;4.33;;
4521;SDS011;2273;48.464;11.926;2023-06-24T11:08:06;9.40;;;4.27;;
4521;SDS011;2273;48.464;11.926;2023-06-24T11:10:32;4.47;;;3.63;;
4521;SDS011;2273;48.464;11.926;2023-06-24T11:13:04;5.53;;;3.60;;
4521;SDS011;2273;48.464;11.926;2023-06-24T11:15:30;5.90;;;3.73;;
4521;SDS011;2273;48.464;11.926;2023-06-24T11:17:55;6.13;;;3.67;;
4521;SDS011;2273;48.464;11.926;2023-06-24T11:20:21;5.40;;;3.57;;
4521;SDS011;2273;48.464;11.926;2023-06-24T11:22:46;7.57;;;3.90;;
4521;SDS011;2273;48.464;11.926;2023-06-24T11:25:15;5.10;;;3.90;;
4521;SDS011;2273;48.464;11.926;2023-06-24T11:27:42;6.17;;;3.70;;
4521;SDS011;2273;48.464;11.926;2023-06-24T11:30:07;6.03;;;3.80;;
4521;SDS011;2273;48.464;11.926;2023-06-24T11:32:36;5.33;;;4.00;;
4521;SDS011;2273;48.464;11.926;2023-06-24T11:35:03;4.97;;;3.90;;
4521;SDS011;2273;48.464;11.926;2023-06-24T11:37:30;3.83;;;3.00;;
4521;SDS011;2273;48.464;11.926;2023-06-24T11:40:03;4.83;;;3.13;;
4521;SDS011;2273;48.464;11.926;2023-06-24T11:42:30;7.40;;;4.00;;
4521;SDS011;2273;48.464;11.926;2023-06-24T11:45:09;6.33;;;3.90;;
4521;SDS011;2273;48.464;11.926;2023-06-24T11:47:36;6.20;;;3.60;;
4521;SDS011;2273;48.464;11.926;2023-06-24T11:50:03;4.30;;;3.33;;
4521;SDS011;2273;48.464;11.926;2023-06-24T11:52:37;5.20;;;3.97;;
4521;SDS011;2273;48.464;11.926;2023-06-24T11:55:39;8.07;;;3.37;;
4521;SDS011;2273;48.464;11.926;2023-06-24T11:57:58;4.10;;;3.50;;
4521;SDS011;2273;48.464;11.926;2023-06-24T12:00:29;5.70;;;3.53;;
4521;SDS011;2273;48.464;11.926;2023-06-24T12:02:56;4.10;;;3.43;;
4521;SDS011;2273;48.464;11.926;2023-06-24T12:05:30;3.80;;;3.40;;
4521;SDS011;2273;48.464;11.926;2023-06-24T12:08:00;3.70;;;3.13;;
4521;SDS011;2273;48.464;11.926;2023-06-24T12:10:27;4.03;;;3.27;;
4521;SDS011;2273;48.464;11.926;2023-06-24T12:12:54;4.63;;;3.30;;
4521;SDS011;2273;48.464;11.926;2023-06-24T12:15:21;4.20;;;3.27;;
4521;SDS011;2273;48.464;11.926;2023-06-24T12:17:47;6.73;;;3.30;;
4521;SDS011;2273;48.464;11.926;2023-06-24T12:20:13;4.20;;;3.23;;
4521;SDS011;2273;48.464;11.926;2023-06-24T12:22:39;4.77;;;3.70;;
4521;SDS011;2273;48.464;11.926;2023-06-24T12:25:05;6.17;;;3.57;;
4521;SDS011;2273;48.464;11.926;2023-06-24T12:27:30;3.40;;;2.93;;
4521;SDS011;2273;48.464;11.926;2023-06-24T12:29:56;9.63;;;4.03;;
4521;SDS011;2273;48.464;11.926;2023-06-24T12:32:21;4.13;;;3.53;;
4521;SDS011;2273;48.464;11.926;2023-06-24T12:34:47;5.03;;;4.10;;
4521;SDS011;2273;48.464;11.926;2023-06-24T12:37:12;4.00;;;3.33;;
4521;SDS011;2273;48.464;11.926;2023-06-24T12:39:38;4.17;;;3.40;;
4521;SDS011;2273;48.464;11.926;2023-06-24T12:42:03;4.47;;;3.50;;
4521;SDS011;2273;48.464;11.926;2023-06-24T12:44:31;3.93;;;3.40;;
4521;SDS011;2273;48.464;11.926;2023-06-24T12:46:56;3.60;;;3.20;;
4521;SDS011;2273;48.464;11.926;2023-06-24T12:49:22;5.87;;;3.27;;
4521;SDS011;2273;48.464;11.926;2023-06-24T12:51:47;5.30;;;3.50;;
4521;SDS011;2273;48.464;11.926;2023-06-24T12:54:12;4.00;;;3.53;;
4521;SDS011;2273;48.464;11.926;2023-06-24T12:56:38;4.83;;;3.33;;
4521;SDS011;2273;48.464;11.926;2023-06-24T12:59:03;4.20;;;3.27;;
4521;SDS011;2273;48.464;11.926;2023-06-24T13:01:31;4.03;;;3.17;;
4521;SDS011;2273;48.464;11.926;2023-06-24T13:03:56;3.73;;;3.30;;
4521;SDS011;2273;48.464;11.926;2023-06-24T13:06:22;4.00;;;3.33;;
4521;SDS011;2273;48.464;11.926;2023-06-24T13:08:47;3.37;;;3.07;;
4521;SDS011;2273;48.464;11.926;2023-06-24T13:11:12;5.10;;;3.00;;
4521;SDS011;2273;48.464;11.926;2023-06-24T13:13:38;6.17;;;3.93;;
4521;SDS011;2273;48.464;11.926;2023-06-24T13:16:03;3.63;;;3.20;;
4521;SDS011;2273;48.464;11.926;2023-06-24T13:18:29;5.50;;;3.60;;
4521;SDS011;2273;48.464;11.926;2023-06-24T13:20:54;3.53;;;3.20;;
4521;SDS011;2273;48.464;11.926;2023-06-24T13:23:19;4.03;;;3.47;;
4521;SDS011;2273;48.464;11.926;2023-06-24T13:25:45;4.50;;;3.33;;
4521;SDS011;2273;48.464;11.926;2023-06-24T13:28:10;5.20;;;3.20;;
4521;SDS011;2273;48.464;11.926;2023-06-24T13:30:36;5.43;;;3.43;;
4521;SDS011;2273;48.464;11.926;2023-06-24T13:33:01;4.43;;;3.50;;
4521;SDS011;2273;48.464;11.926;2023-06-24T13:35:27;3.63;;;3.23;;
4521;SDS011;2273;48.464;11.926;2023-06-24T13:37:52;3.30;;;2.80;;
4521;SDS011;2273;48.464;11.926;2023-06-24T13:40:17;6.37;;;3.57;;
4521;SDS011;2273;48.464;11.926;2023-06-24T13:42:43;3.57;;;3.10;;
4521;SDS011;2273;48.464;11.926;2023-06-24T13:45:08;4.73;;;3.80;;
4521;SDS011;2273;48.464;11.926;2023-06-24T13:47:34;5.50;;;3.33;;
4521;SDS011;2273;48.464;11.926;2023-06-24T13:50:00;3.93;;;3.30;;
4521;SDS011;2273;48.464;11.926;2023-06-24T13:52:26;6.00;;;3.53;;
4521;SDS011;2273;48.464;11.926;2023-06-24T13:54:52;3.80;;;3.00;;
4521;SDS011;2273;48.464;11.926;2023-06-24T13:57:18;3.43;;;3.13;;
4521;SDS011;2273;48.464;11.926;2023-06-24T13:59:43;3.33;;;3.03;;
4521;SDS011;2273;48.464;11.926;2023-06-24T14:02:09;4.30;;;3.43;;
4521;SDS011;2273;48.464;11.926;2023-06-24T14:04:34;4.20;;;3.50;;
4521;SDS011;2273;48.464;11.926;2023-06-24T14:07:00;3.93;;;3.10;;
4521;SDS011;2273;48.464;11.926;2023-06-24T14:09:27;5.90;;;3.50;;
4521;SDS011;2273;48.464;11.926;2023-06-24T14:11:52;4.27;;;3.47;;
4521;SDS011;2273;48.464;11.926;2023-06-24T14:14:18;4.60;;;3.47;;
4521;SDS011;2273;48.464;11.926;2023-06-24T14:16:43;3.40;;;3.10;;
4521;SDS011;2273;48.464;11.926;2023-06-24T14:19:09;3.30;;;3.00;;
4521;SDS011;2273;48.464;11.926;2023-06-24T14:21:34;3.33;;;3.03;;
4521;SDS011;2273;48.464;11.926;2023-06-24T14:24:01;3.70;;;3.13;;
4521;SDS011;2273;48.464;11.926;2023-06-24T14:26:26;3.20;;;2.90;;
4521;SDS011;2273;48.464;11.926;2023-06-24T14:28:51;3.13;;;2.83;;
4521;SDS011;2273;48.464;11.926;2023-06-24T14:31:17;3.37;;;3.07;;
4521;SDS011;2273;48.464;11.926;2023-06-24T14:33:42;3.57;;;2.90;;
4521;SDS011;2273;48.464;11.926;2023-06-24T14:36:08;3.57;;;3.00;;
4521;SDS011;2273;48.464;11.926;2023-06-24T14:38:33;3.70;;;3.30;;
4521;SDS011;2273;48.464;11.926;2023-06-24T14:40:59;6.33;;;3.20;;
4521;SDS011;2273;48.464;11.926;2023-06-24T14:43:24;6.80;;;3.30;;
4521;SDS011;2273;48.464;11.926;2023-06-24T14:45:49;6.27;;;3.50;;
4521;SDS011;2273;48.464;11.926;2023-06-24T14:48:15;4.53;;;3.70;;
4521;SDS011;2273;48.464;11.926;2023-06-24T14:50:40;3.53;;;3.23;;
4521;SDS011;2273;48.464;11.926;2023-06-24T14:53:06;3.47;;;3.17;;
4521;SDS011;2273;48.464;11.926;2023-06-24T14:55:31;4.90;;;2.80;;
4521;SDS011;2273;48.464;11.926;2023-06-24T14:57:57;3.37;;;3.07;;
4521;SDS011;2273;48.464;11.926;2023-06-24T15:00:22;4.43;;;3.60;;
4521;SDS011;2273;48.464;11.926;2023-06-24T15:02:48;3.60;;;3.10;;